Time;durP1;ratioP1;P1;durP2;ratioP2;P2;SDS_P1;SDS_P2;PMS_P1;PMS_P2;Temp;Humidity;BMP_temperature;BMP_pressure;BME280_temperature;BME280_humidity;BME280_pressure;Samples;Min_cycle;Max_cycle;Signal;HPM_P1;HPM_P2
2021/08/22 00:00:32;;;;;;;8.07;4.85;;;18.40;99.90;;;;;;12600136;28;20055;-43
2021/08/22 00:06:34;;;;;;;6.38;4.82;;;18.30;99.90;;;;;;12594797;28;20996;-45
2021/08/22 00:12:36;;;;;;;6.65;5.03;;;18.30;99.90;;;;;;12598486;28;20047;-45
2021/08/22 00:18:38;;;;;;;8.30;5.30;;;18.20;99.90;;;;;;12610893;28;20126;-44
2021/08/22 00:24:40;;;;;;;10.63;5.18;;;18.20;99.90;;;;;;12590466;28;20051;-45
2021/08/22 00:30:42;;;;;;;7.43;5.03;;;18.20;99.90;;;;;;12587506;28;20125;-43
2021/08/22 00:36:44;;;;;;;8.40;5.45;;;18.10;99.90;;;;;;12593811;28;20519;-43
2021/08/22 00:42:46;;;;;;;6.53;5.82;;;17.90;99.90;;;;;;12588585;28;20101;-44
2021/08/22 00:48:49;;;;;;;8.13;5.45;;;17.90;99.90;;;;;;12592786;28;20055;-43
2021/08/22 00:54:51;;;;;;;8.82;5.43;;;17.90;99.90;;;;;;12612832;28;20080;-43
2021/08/22 01:00:55;;;;;;;8.90;5.05;;;17.90;99.90;;;;;;12589829;28;20116;-43
2021/08/22 01:07:37;;;;;;;7.57;5.57;;;17.80;99.90;;;;;;12575055;28;20053;-43
2021/08/22 01:13:47;;;;;;;10.52;5.45;;;17.80;99.90;;;;;;12606331;28;20085;-45
2021/08/22 01:20:04;;;;;;;8.15;6.70;;;17.70;99.90;;;;;;12620013;28;20154;-43
2021/08/22 01:26:07;;;;;;;9.70;6.07;;;17.70;99.90;;;;;;12615012;28;20044;-46
2021/08/22 01:32:13;;;;;;;8.77;5.90;;;17.70;99.90;;;;;;12582483;28;20051;-44
2021/08/22 01:38:16;;;;;;;7.68;5.93;;;17.60;99.90;;;;;;12617100;28;20073;-42
2021/08/22 01:44:20;;;;;;;8.90;5.95;;;17.60;99.90;;;;;;12608960;28;20127;-44
2021/08/22 01:50:22;;;;;;;;;;;17.60;99.90;;;;;;12600218;28;20144;-42
2021/08/22 01:56:26;;;;;;;8.48;5.82;;;17.70;99.90;;;;;;12615752;28;20360;-44
2021/08/22 02:02:28;;;;;;;8.80;5.93;;;17.60;99.90;;;;;;12607331;28;20385;-44
2021/08/22 02:08:33;;;;;;;9.20;6.40;;;17.60;99.90;;;;;;12597256;28;20051;-43
2021/08/22 02:14:39;;;;;;;7.53;5.50;;;17.60;99.90;;;;;;12613221;28;20079;-46
2021/08/22 02:20:48;;;;;;;6.37;4.50;;;17.60;99.90;;;;;;12574283;28;20087;-45
2021/08/22 02:26:51;;;;;;;12.70;5.60;;;17.40;99.90;;;;;;12603067;28;20104;-45
2021/08/22 02:32:54;;;;;;;11.55;5.15;;;17.20;99.90;;;;;;12616330;28;20047;-46
2021/08/22 02:38:56;;;;;;;11.63;5.63;;;17.00;99.90;;;;;;12594000;28;20701;-43
2021/08/22 02:44:58;;;;;;;9.55;6.05;;;16.70;99.90;;;;;;12612318;28;20043;-44
2021/08/22 02:51:02;;;;;;;14.00;6.95;;;16.70;99.90;;;;;;12602226;28;20036;-44
2021/08/22 02:57:04;;;;;;;11.40;6.35;;;16.80;99.90;;;;;;12615487;28;20044;-42
2021/08/22 03:03:06;;;;;;;11.88;7.47;;;16.80;99.90;;;;;;12593781;28;20062;-43
2021/08/22 03:09:08;;;;;;;9.55;7.35;;;16.70;99.90;;;;;;12598283;28;20059;-44
2021/08/22 03:15:11;;;;;;;11.80;7.50;;;16.70;99.90;;;;;;12611459;28;20755;-45
2021/08/22 03:21:13;;;;;;;11.27;8.05;;;16.70;99.90;;;;;;12599822;28;24099;-43
2021/08/22 03:27:14;;;;;;;11.75;8.85;;;16.70;99.90;;;;;;12621406;28;20048;-42
2021/08/22 03:33:16;;;;;;;12.27;8.90;;;16.70;99.90;;;;;;12581860;28;20045;-42
2021/08/22 03:39:18;;;;;;;12.52;9.00;;;16.80;99.90;;;;;;12606495;28;20515;-47
2021/08/22 03:45:20;;;;;;;12.88;8.82;;;16.80;99.90;;;;;;12596163;28;20051;-43
2021/08/22 03:51:23;;;;;;;11.38;9.43;;;16.80;99.90;;;;;;12612798;28;20044;-42
2021/08/22 03:57:25;;;;;;;11.48;8.75;;;16.80;99.90;;;;;;12609930;28;20394;-44
2021/08/22 04:03:28;;;;;;;11.93;9.73;;;16.90;99.90;;;;;;12592574;28;20053;-43
2021/08/22 04:09:30;;;;;;;12.00;9.82;;;16.90;99.90;;;;;;12606581;28;20079;-44
2021/08/22 04:15:32;;;;;;;11.25;9.98;;;16.90;99.90;;;;;;12612608;28;20555;-42
2021/08/22 04:21:34;;;;;;;14.73;10.55;;;16.90;99.90;;;;;;12597980;28;20040;-42
2021/08/22 04:27:39;;;;;;;12.18;10.25;;;16.90;99.90;;;;;;12587331;28;20063;-43
2021/08/22 04:33:41;;;;;;;19.38;12.40;;;16.90;99.90;;;;;;12606872;28;20048;-42
2021/08/22 04:39:45;;;;;;;14.13;12.13;;;16.90;99.90;;;;;;12574198;28;20049;-43
2021/08/22 04:45:47;;;;;;;17.40;12.18;;;16.90;99.90;;;;;;12600267;28;20075;-43
2021/08/22 04:51:49;;;;;;;14.68;10.80;;;16.90;99.90;;;;;;12598900;28;20058;-44
2021/08/22 04:57:51;;;;;;;13.05;10.60;;;16.80;99.90;;;;;;12603837;28;20040;-43
2021/08/22 05:03:53;;;;;;;14.88;11.38;;;16.80;99.90;;;;;;12615474;28;20056;-44
2021/08/22 05:09:55;;;;;;;13.75;10.65;;;16.80;99.90;;;;;;12611425;28;20072;-44
2021/08/22 05:15:57;;;;;;;14.60;10.93;;;16.80;99.90;;;;;;12605896;28;20053;-44
2021/08/22 05:21:59;;;;;;;14.68;10.05;;;16.80;99.90;;;;;;12612430;28;20407;-44
2021/08/22 05:28:01;;;;;;;15.05;10.68;;;16.80;99.90;;;;;;12611640;28;20112;-43
2021/08/22 05:34:03;;;;;;;15.27;10.45;;;16.80;99.90;;;;;;12613731;28;20089;-44
2021/08/22 05:40:05;;;;;;;13.40;10.63;;;16.80;99.90;;;;;;12596208;28;20556;-43
2021/08/22 05:46:08;;;;;;;14.38;10.82;;;16.90;99.90;;;;;;12615757;28;20526;-45
2021/08/22 05:52:11;;;;;;;15.13;11.48;;;16.90;99.90;;;;;;12617724;28;20048;-45
2021/08/22 05:58:13;;;;;;;15.07;11.48;;;16.90;99.90;;;;;;12604741;28;20405;-42
2021/08/22 06:04:17;;;;;;;13.95;11.35;;;16.90;99.90;;;;;;12609325;28;20111;-47
2021/08/22 06:10:19;;;;;;;15.35;11.45;;;17.00;99.90;;;;;;12602800;28;20060;-43
2021/08/22 06:16:21;;;;;;;14.85;10.98;;;17.00;99.90;;;;;;12613871;28;20048;-43
2021/08/22 06:22:24;;;;;;;14.10;11.38;;;17.00;99.90;;;;;;12595544;28;20944;-44
2021/08/22 06:28:26;;;;;;;14.27;11.63;;;17.00;99.90;;;;;;12620275;28;20071;-43
2021/08/22 06:34:29;;;;;;;17.75;13.27;;;17.00;99.90;;;;;;12620021;28;20052;-44
2021/08/22 06:40:31;;;;;;;21.42;16.02;;;17.00;99.90;;;;;;12620030;28;20073;-44
2021/08/22 06:46:33;;;;;;;21.67;18.67;;;17.00;99.90;;;;;;12608959;28;20048;-42
2021/08/22 06:52:35;;;;;;;21.27;19.05;;;16.90;99.90;;;;;;12603072;28;20080;-44
2021/08/22 06:58:37;;;;;;;22.40;19.63;;;16.90;99.90;;;;;;12617682;28;20131;-45
2021/08/22 07:04:40;;;;;;;22.02;19.65;;;17.00;99.90;;;;;;12601530;28;20044;-43
2021/08/22 07:10:42;;;;;;;22.20;19.85;;;17.10;99.90;;;;;;12607757;28;20100;-43
2021/08/22 07:16:44;;;;;;;27.10;19.33;;;17.10;99.90;;;;;;12628096;28;20163;-45
2021/08/22 07:22:47;;;;;;;23.08;20.70;;;17.20;99.90;;;;;;12601483;28;20128;-43
2021/08/22 07:28:51;;;;;;;25.37;22.70;;;17.30;99.90;;;;;;12600259;28;20056;-44
2021/08/22 07:34:53;;;;;;;25.13;22.38;;;17.40;99.90;;;;;;12608968;28;20055;-43
2021/08/22 07:40:55;;;;;;;27.85;23.48;;;17.50;99.90;;;;;;12608919;28;20097;-43
2021/08/22 07:46:57;;;;;;;24.70;22.08;;;17.60;99.90;;;;;;12607966;28;20100;-45
2021/08/22 07:52:59;;;;;;;23.95;20.38;;;17.70;99.90;;;;;;12586823;28;20143;-44
2021/08/22 07:59:01;;;;;;;20.20;18.10;;;17.90;99.90;;;;;;12589885;28;20104;-43
2021/08/22 08:05:04;;;;;;;18.42;16.48;;;18.10;99.90;;;;;;12597597;28;20338;-43
2021/08/22 08:11:06;;;;;;;15.32;13.73;;;18.30;99.90;;;;;;12605925;28;20135;-44
2021/08/22 08:17:08;;;;;;;15.57;11.95;;;18.40;99.90;;;;;;12590502;28;20055;-43
2021/08/22 08:23:10;;;;;;;13.30;11.18;;;18.40;99.90;;;;;;12597379;28;20236;-45
2021/08/22 08:29:13;;;;;;;13.63;11.57;;;18.50;99.90;;;;;;12605286;28;20134;-44
2021/08/22 08:35:15;;;;;;;14.43;11.55;;;18.60;99.90;;;;;;12599594;28;20040;-43
2021/08/22 08:41:17;;;;;;;15.13;12.90;;;18.60;99.90;;;;;;12591539;28;20711;-43
2021/08/22 08:47:20;;;;;;;13.52;10.75;;;18.80;99.90;;;;;;12604680;28;20052;-45
2021/08/22 08:53:27;;;;;;;12.20;10.70;;;18.90;99.90;;;;;;12597346;28;20166;-43
2021/08/22 08:59:31;;;;;;;11.75;9.60;;;19.20;99.90;;;;;;12599901;28;20100;-44
2021/08/22 09:05:51;;;;;;;12.27;9.98;;;19.40;99.90;;;;;;12603210;28;20150;-44
2021/08/22 09:12:11;;;;;;;12.60;9.48;;;19.40;99.90;;;;;;12601015;28;20728;-43
2021/08/22 09:18:56;;;;;;;13.70;11.20;;;19.50;99.90;;;;;;12606249;28;20105;-43
2021/08/22 09:25:29;;;;;;;13.75;11.70;;;19.60;99.90;;;;;;12597037;28;20525;-43
2021/08/22 09:32:16;;;;;;;17.27;11.45;;;19.80;99.90;;;;;;12627256;28;20396;-42
2021/08/22 09:38:19;;;;;;;15.55;11.68;;;19.90;99.90;;;;;;12612027;28;20059;-44
2021/08/22 09:44:58;;;;;;;16.58;13.05;;;19.70;99.90;;;;;;12613120;28;20048;-45
2021/08/22 09:51:58;;;;;;;20.45;13.95;;;19.70;99.90;;;;;;12628449;28;20071;-45
2021/08/22 09:58:55;;;;;;;18.40;15.07;;;19.60;99.90;;;;;;12401970;28;20049;-43
2021/08/22 10:05:13;;;;;;;19.73;15.98;;;19.60;99.90;;;;;;12543322;28;20507;-44
2021/08/22 10:11:17;;;;;;;20.55;16.67;;;19.60;99.90;;;;;;12614897;28;20051;-45
2021/08/22 10:17:22;;;;;;;22.10;17.63;;;19.70;99.90;;;;;;12593496;28;20048;-44
2021/08/22 10:23:41;;;;;;;26.20;19.60;;;19.80;99.90;;;;;;12608254;28;20140;-44
2021/08/22 10:29:49;;;;;;;25.17;21.40;;;20.00;99.90;;;;;;12617976;28;20083;-44
2021/08/22 10:35:51;;;;;;;24.02;18.73;;;20.40;99.90;;;;;;12614936;28;20059;-44
2021/08/22 10:42:00;;;;;;;22.52;18.55;;;21.20;99.90;;;;;;12609518;28;20048;-43
2021/08/22 10:48:03;;;;;;;26.77;19.45;;;21.50;99.90;;;;;;12610756;28;20048;-46
2021/08/22 10:54:18;;;;;;;28.40;20.70;;;21.00;99.90;;;;;;12605516;28;20084;-47
2021/08/22 11:00:25;;;;;;;23.67;18.85;;;20.50;99.90;;;;;;12621427;28;20422;-47
2021/08/22 11:06:27;;;;;;;22.80;18.75;;;20.80;99.90;;;;;;12615022;28;20080;-43
2021/08/22 11:17:48;;;;;;;21.10;16.05;;;21.60;99.90;;;;;;12438238;28;20136;-46
2021/08/22 11:23:58;;;;;;;15.75;14.05;;;22.60;99.90;;;;;;12455398;28;20140;-44
2021/08/22 11:30:04;;;;;;;18.02;15.73;;;22.40;99.90;;;;;;12454981;28;20099;-46
2021/08/22 11:36:06;;;;;;;19.85;15.80;;;22.50;99.90;;;;;;12506344;28;20049;-46
2021/08/22 11:42:09;;;;;;;18.15;15.13;;;22.80;99.90;;;;;;12509261;28;20057;-49
2021/08/22 11:48:19;;;;;;;;;;;23.00;99.90;;;;;;12506434;28;20077;-43
2021/08/22 11:54:22;;;;;;;17.17;14.85;;;22.50;99.90;;;;;;12508442;28;19947;-43
2021/08/22 12:00:24;;;;;;;15.82;13.88;;;22.30;99.90;;;;;;12505998;28;20090;-43
2021/08/22 12:06:30;;;;;;;17.92;13.95;;;22.40;99.90;;;;;;12502532;28;20621;-46
2021/08/22 12:12:39;;;;;;;16.17;13.90;;;23.10;99.90;;;;;;12500293;28;20060;-45
2021/08/22 12:18:41;;;;;;;17.90;13.93;;;23.70;99.90;;;;;;12500338;28;20045;-44
2021/08/22 12:24:48;;;;;;;20.15;15.73;;;23.40;99.90;;;;;;12491753;28;20148;-48
2021/08/22 12:31:11;;;;;;;16.90;14.60;;;22.70;99.90;;;;;;12470876;28;20046;-43
2021/08/22 12:37:17;;;;;;;16.30;13.83;;;22.30;99.90;;;;;;12472341;28;20053;-43
2021/08/22 12:43:19;;;;;;;9.55;8.32;;;22.40;99.90;;;;;;12465787;28;20050;-44
2021/08/22 12:49:22;;;;;;;7.78;6.18;;;23.10;99.90;;;;;;12466909;28;20069;-44
2021/08/22 12:55:26;;;;;;;8.93;6.93;;;23.70;99.90;;;;;;12466139;28;20086;-44
2021/08/22 13:01:28;;;;;;;8.88;7.30;;;24.00;99.90;;;;;;12468067;28;20539;-44
2021/08/22 13:07:30;;;;;;;8.17;6.23;;;24.20;99.90;;;;;;12470587;28;20171;-43
2021/08/22 13:13:34;;;;;;;7.07;5.22;;;24.60;99.90;;;;;;12465842;28;20054;-44
2021/08/22 13:19:36;;;;;;;7.10;5.60;;;23.70;99.90;;;;;;12466496;28;20132;-46
2021/08/22 13:25:38;;;;;;;12.30;6.35;;;24.60;99.90;;;;;;12471373;28;20049;-44
2021/08/22 13:31:41;;;;;;;6.70;5.60;;;24.50;99.90;;;;;;12463579;28;20045;-44
2021/08/22 13:37:43;;;;;;;7.28;5.32;;;24.40;99.90;;;;;;12462364;28;20132;-44
2021/08/22 13:43:45;;;;;;;10.13;6.35;;;23.80;99.90;;;;;;12466759;28;20049;-48
2021/08/22 13:49:47;;;;;;;7.30;6.30;;;22.80;99.90;;;;;;12470785;28;20516;-46
2021/08/22 13:55:49;;;;;;;6.45;5.53;;;22.80;99.90;;;;;;12464583;28;20132;-44
2021/08/22 14:01:52;;;;;;;7.82;5.70;;;22.60;99.90;;;;;;12465567;28;20042;-44
2021/08/22 14:07:55;;;;;;;6.78;5.78;;;22.80;99.90;;;;;;12465659;28;20130;-42
2021/08/22 14:13:57;;;;;;;6.93;5.85;;;23.70;99.90;;;;;;12470981;28;20054;-44
2021/08/22 14:19:59;;;;;;;7.03;5.27;;;24.30;99.90;;;;;;12458758;28;20054;-43
2021/08/22 14:26:01;;;;;;;7.93;6.00;;;23.90;99.90;;;;;;12465046;28;20137;-44
2021/08/22 14:32:04;;;;;;;7.40;5.80;;;22.80;99.90;;;;;;12452954;28;20119;-43
2021/08/22 14:38:07;;;;;;;8.15;5.75;;;22.60;99.90;;;;;;12463842;28;20363;-44
2021/08/22 14:44:09;;;;;;;6.82;5.50;;;22.80;99.90;;;;;;12463045;28;20075;-43
2021/08/22 14:50:11;;;;;;;7.05;5.60;;;23.90;99.90;;;;;;12462852;28;20446;-44
2021/08/22 14:56:13;;;;;;;6.38;5.65;;;24.60;99.90;;;;;;12458774;28;20053;-43
2021/08/22 15:02:15;;;;;;;6.78;5.35;;;24.20;99.90;;;;;;12464677;28;20559;-46
2021/08/22 15:08:18;;;;;;;6.95;5.68;;;24.40;99.90;;;;;;12457033;28;20508;-43
2021/08/22 15:14:20;;;;;;;6.43;5.40;;;24.10;99.90;;;;;;12458569;28;20069;-43
2021/08/22 15:20:22;;;;;;;7.65;5.47;;;23.40;99.90;;;;;;12458570;28;20104;-44
2021/08/22 15:26:24;;;;;;;8.10;5.25;;;23.20;99.90;;;;;;12460701;28;20057;-44
2021/08/22 15:32:26;;;;;;;6.47;4.82;;;22.50;99.90;;;;;;12463761;28;20151;-43
2021/08/22 15:38:29;;;;;;;5.65;4.47;;;22.30;99.90;;;;;;12458203;28;20053;-46
2021/08/22 15:44:36;;;;;;;4.88;4.10;;;22.40;99.90;;;;;;12459743;28;20119;-45
2021/08/22 15:50:43;;;;;;;5.68;4.70;;;22.30;99.90;;;;;;12460420;28;20136;-46
2021/08/22 15:56:46;;;;;;;4.90;3.80;;;22.70;99.90;;;;;;12454983;28;20050;-44
2021/08/22 16:02:47;;;;;;;6.90;3.65;;;22.80;99.90;;;;;;12466241;28;20049;-43
2021/08/22 16:08:49;;;;;;;4.40;3.30;;;22.80;99.90;;;;;;12472812;28;20589;-46
2021/08/22 16:14:52;;;;;;;4.65;3.03;;;22.80;99.90;;;;;;12467719;28;20049;-45
2021/08/22 16:20:54;;;;;;;5.95;3.65;;;22.90;99.90;;;;;;12468153;28;20097;-44
2021/08/22 16:26:56;;;;;;;5.47;3.42;;;22.80;99.90;;;;;;12469373;28;20520;-43
2021/08/22 16:32:58;;;;;;;7.00;4.15;;;22.90;99.90;;;;;;12469314;28;20091;-46
2021/08/22 16:39:05;;;;;;;5.70;3.25;;;22.90;99.90;;;;;;12466035;28;20136;-44
2021/08/22 16:45:09;;;;;;;5.72;4.18;;;22.60;99.90;;;;;;12459526;28;20053;-44
2021/08/22 16:51:11;;;;;;;7.13;4.30;;;22.10;99.90;;;;;;12467599;28;20060;-43
2021/08/22 16:57:13;;;;;;;5.60;3.92;;;21.70;99.90;;;;;;12474353;28;20414;-44
2021/08/22 17:03:26;;;;;;;5.93;3.60;;;21.80;99.90;;;;;;12470697;28;20056;-44
2021/08/22 17:09:28;;;;;;;5.97;3.93;;;21.60;99.90;;;;;;12466270;28;20307;-48
2021/08/22 17:15:32;;;;;;;9.70;4.47;;;21.20;99.90;;;;;;12477522;28;20398;-44
2021/08/22 17:21:36;;;;;;;5.90;4.25;;;20.90;99.90;;;;;;12472656;28;20164;-43
2021/08/22 17:27:46;;;;;;;6.97;4.22;;;20.80;99.90;;;;;;12469761;28;20054;-43
2021/08/22 17:33:51;;;;;;;5.82;4.50;;;20.70;99.90;;;;;;12476133;28;20136;-43
2021/08/22 17:40:01;;;;;;;6.10;4.28;;;20.80;99.90;;;;;;12472769;28;20068;-43
2021/08/22 17:46:03;;;;;;;7.93;4.80;;;20.90;99.90;;;;;;12465827;28;20673;-45
2021/08/22 17:52:14;;;;;;;6.53;4.60;;;21.00;99.90;;;;;;12464350;28;20092;-44
2021/08/22 17:58:19;;;;;;;6.15;4.90;;;21.10;99.90;;;;;;12466614;28;20045;-43
2021/08/22 18:04:27;;;;;;;9.05;4.47;;;21.20;99.90;;;;;;12469828;28;20156;-43
2021/08/22 18:10:29;;;;;;;5.55;4.07;;;21.10;99.90;;;;;;12463980;28;20045;-43
2021/08/22 18:16:35;;;;;;;5.63;3.80;;;20.70;99.90;;;;;;12470590;28;20175;-43
2021/08/22 18:22:41;;;;;;;5.75;4.20;;;20.50;99.90;;;;;;12482647;28;20070;-44
2021/08/22 18:28:43;;;;;;;10.37;5.13;;;20.40;99.90;;;;;;12468156;28;20049;-44
2021/08/22 18:34:45;;;;;;;6.70;4.80;;;20.20;99.90;;;;;;12469016;28;20547;-44
2021/08/22 18:40:47;;;;;;;7.25;4.75;;;20.00;99.90;;;;;;12466437;28;20470;-43
2021/08/22 18:46:49;;;;;;;6.53;5.20;;;19.90;99.90;;;;;;12457166;28;20054;-43
2021/08/22 18:52:51;;;;;;;7.75;5.93;;;19.60;99.90;;;;;;12457658;28;20501;-44
2021/08/22 18:58:54;;;;;;;7.83;6.03;;;19.30;99.90;;;;;;12455940;28;20152;-44
2021/08/22 19:04:57;;;;;;;8.35;6.85;;;18.90;99.90;;;;;;12451352;28;20050;-44
2021/08/22 19:10:59;;;;;;;9.20;6.57;;;18.70;99.90;;;;;;12447588;28;20468;-43
2021/08/22 19:17:01;;;;;;;9.55;6.38;;;18.60;99.90;;;;;;12415287;28;20055;-44
2021/08/22 19:23:05;;;;;;;8.63;6.22;;;18.70;99.90;;;;;;12410416;28;20081;-43
2021/08/22 19:29:06;;;;;;;6.53;5.82;;;19.00;99.90;;;;;;12413309;28;20136;-45
2021/08/22 19:35:09;;;;;;;10.10;6.53;;;19.10;99.90;;;;;;12413681;28;20136;-45
2021/08/22 19:41:11;;;;;;;8.25;6.63;;;19.10;99.90;;;;;;12421573;28;20558;-45
2021/08/22 19:47:13;;;;;;;7.60;6.55;;;19.00;99.90;;;;;;12404437;28;20050;-44
2021/08/22 19:53:15;;;;;;;7.88;6.88;;;18.80;99.90;;;;;;12419982;28;20084;-44
2021/08/22 19:59:17;;;;;;;8.93;6.40;;;18.50;99.90;;;;;;12421509;28;20128;-45
2021/08/22 20:05:19;;;;;;;11.20;7.15;;;18.60;99.90;;;;;;12421751;28;20053;-44
2021/08/22 20:11:21;;;;;;;7.55;6.03;;;18.60;99.90;;;;;;12416677;28;20050;-44
2021/08/22 20:17:23;;;;;;;7.05;5.45;;;18.70;99.90;;;;;;12450414;28;20050;-46
2021/08/22 20:23:25;;;;;;;6.65;5.75;;;18.60;99.90;;;;;;12458381;28;20520;-44
2021/08/22 20:29:27;;;;;;;15.68;6.00;;;18.60;99.90;;;;;;12459994;28;20068;-45
2021/08/22 20:35:29;;;;;;;8.20;5.75;;;18.60;99.90;;;;;;12456210;28;20969;-44
2021/08/22 20:41:31;;;;;;;9.85;6.28;;;18.40;99.90;;;;;;12459508;28;20472;-43
2021/08/22 20:47:33;;;;;;;6.18;5.30;;;18.20;99.90;;;;;;12476191;28;20042;-44
2021/08/22 20:53:35;;;;;;;8.30;5.57;;;18.30;99.90;;;;;;12455979;28;20493;-44
2021/08/22 20:59:37;;;;;;;7.20;5.32;;;18.50;99.90;;;;;;12452991;28;20049;-44
2021/08/22 21:05:39;;;;;;;7.47;5.47;;;18.50;99.90;;;;;;12453586;28;20204;-44
2021/08/22 21:11:41;;;;;;;5.47;4.72;;;18.60;99.90;;;;;;12455136;28;20045;-45
2021/08/22 21:17:59;;;;;;;8.18;5.70;;;18.50;99.90;;;;;;12456036;28;20135;-43
2021/08/22 21:24:01;;;;;;;6.13;5.07;;;18.50;99.90;;;;;;12454534;28;20057;-44
2021/08/22 21:30:03;;;;;;;6.00;4.13;;;18.50;99.90;;;;;;12455998;28;20061;-46
2021/08/22 21:36:05;;;;;;;7.47;5.28;;;18.50;99.90;;;;;;12456028;28;20045;-42
2021/08/22 21:42:07;;;;;;;6.50;4.82;;;18.40;99.90;;;;;;12459722;28;20081;-44
2021/08/22 21:48:11;;;;;;;6.00;4.78;;;18.40;99.90;;;;;;12455192;28;20057;-43
2021/08/22 21:54:12;;;;;;;5.88;4.70;;;18.40;99.90;;;;;;12454153;28;20110;-44
2021/08/22 22:00:15;;;;;;;7.40;5.20;;;18.40;99.90;;;;;;12450078;28;20104;-44
2021/08/22 22:06:17;;;;;;;4.00;3.03;;;18.40;99.90;;;;;;12450318;28;20050;-43
2021/08/22 22:12:19;;;;;;;3.58;2.50;;;18.30;99.90;;;;;;12449506;28;20057;-44
2021/08/22 22:18:21;;;;;;;4.22;2.38;;;18.40;99.90;;;;;;12451558;28;20130;-45
2021/08/22 22:24:23;;;;;;;2.53;1.70;;;18.40;99.90;;;;;;12452052;28;20517;-43
2021/08/22 22:30:25;;;;;;;2.30;1.50;;;18.20;99.90;;;;;;12451898;28;20563;-43
2021/08/22 22:36:27;;;;;;;2.28;1.40;;;18.10;99.90;;;;;;12451287;28;20076;-45
2021/08/22 22:42:29;;;;;;;2.53;1.60;;;18.20;99.90;;;;;;12454446;28;20114;-44
2021/08/22 22:48:31;;;;;;;3.55;1.90;;;18.10;99.90;;;;;;12453656;28;20085;-45
2021/08/22 22:54:35;;;;;;;3.20;1.90;;;17.80;99.90;;;;;;12448229;28;20069;-44
2021/08/22 23:00:37;;;;;;;3.08;1.95;;;17.80;99.90;;;;;;12446424;28;20473;-43
2021/08/22 23:06:39;;;;;;;7.40;2.45;;;18.00;99.90;;;;;;12440799;28;20611;-44
2021/08/22 23:12:41;;;;;;;3.92;2.80;;;18.00;99.90;;;;;;12444988;28;20072;-43
2021/08/22 23:18:42;;;;;;;5.28;2.80;;;18.00;99.90;;;;;;12446681;28;20041;-42
2021/08/22 23:24:44;;;;;;;5.22;3.30;;;17.90;99.90;;;;;;12445362;28;20050;-43
2021/08/22 23:30:46;;;;;;;7.80;4.13;;;17.80;99.90;;;;;;12444391;28;21249;-43
2021/08/22 23:36:48;;;;;;;6.03;4.38;;;17.70;99.90;;;;;;12443089;28;20119;-44
2021/08/22 23:42:50;;;;;;;7.10;3.15;;;17.90;99.90;;;;;;12444080;28;20042;-44
2021/08/22 23:48:52;;;;;;;3.90;2.92;;;18.10;99.90;;;;;;12446201;28;20083;-43
2021/08/22 23:54:55;;;;;;;4.25;2.88;;;17.90;99.90;;;;;;12441984;28;20125;-44
